Time;durP1;ratioP1;P1;durP2;ratioP2;P2;SDS_P1;SDS_P2;PMS_P1;PMS_P2;Temp;Humidity;BMP_temperature;BMP_pressure;BME280_temperature;BME280_humidity;BME280_pressure;Samples;Min_cycle;Max_cycle;Signal;HPM_P1;HPM_P2
2020/12/31 00:01:28;;;;;;;15.43;9.75;;;1.80;99.90;;;;;;5069156;28;20048;-78
2020/12/31 00:03:55;;;;;;;15.52;8.88;;;1.80;99.90;;;;;;5080722;28;20044;-78
2020/12/31 00:06:21;;;;;;;15.40;8.50;;;1.80;99.90;;;;;;5056614;28;20045;-78
2020/12/31 00:08:48;;;;;;;17.67;9.40;;;1.90;99.90;;;;;;5074727;28;20032;-77
2020/12/31 00:11:15;;;;;;;14.27;9.45;;;1.90;99.90;;;;;;5072952;28;20024;-77
2020/12/31 00:13:41;;;;;;;20.30;10.10;;;2.00;99.90;;;;;;5088180;28;20477;-77
2020/12/31 00:16:07;;;;;;;14.80;9.52;;;2.00;99.90;;;;;;5079318;28;20055;-77
2020/12/31 00:18:34;;;;;;;15.35;8.80;;;2.10;99.90;;;;;;5083461;28;20448;-77
2020/12/31 00:21:00;;;;;;;14.95;8.95;;;2.10;99.90;;;;;;5073553;28;20036;-77
2020/12/31 00:23:26;;;;;;;16.65;8.93;;;2.10;99.90;;;;;;5074519;28;20351;-77
2020/12/31 00:25:53;;;;;;;16.02;9.27;;;2.10;99.90;;;;;;5074756;28;20036;-76
2020/12/31 00:28:21;;;;;;;16.30;10.05;;;2.10;99.90;;;;;;5075789;28;20036;-77
2020/12/31 00:30:48;;;;;;;15.20;9.00;;;2.10;99.90;;;;;;5089137;28;20051;-77
2020/12/31 00:33:16;;;;;;;15.88;9.82;;;2.10;99.90;;;;;;5091859;28;20047;-77
2020/12/31 00:35:49;;;;;;;12.52;8.65;;;2.10;99.90;;;;;;5055767;28;20481;-77
2020/12/31 00:38:16;;;;;;;15.23;9.50;;;2.10;99.90;;;;;;5055279;28;20036;-77
2020/12/31 00:40:42;;;;;;;17.63;9.45;;;2.10;99.90;;;;;;5057087;28;20040;-77
2020/12/31 00:43:08;;;;;;;13.30;9.05;;;2.10;99.90;;;;;;5073455;28;20032;-77
2020/12/31 00:45:35;;;;;;;13.35;9.32;;;2.10;99.90;;;;;;5071611;28;20413;-77
2020/12/31 00:48:01;;;;;;;16.23;9.40;;;2.10;99.90;;;;;;5060153;28;20044;-77
2020/12/31 00:50:27;;;;;;;16.05;10.35;;;2.20;99.90;;;;;;5063032;28;20052;-77
2020/12/31 00:52:53;;;;;;;16.98;9.20;;;2.10;99.90;;;;;;5067440;28;20033;-77
2020/12/31 00:55:20;;;;;;;18.05;10.18;;;2.10;99.90;;;;;;5073758;28;20029;-77
2020/12/31 00:57:49;;;;;;;19.10;10.57;;;2.20;99.90;;;;;;5071263;28;20044;-77
2020/12/31 01:00:16;;;;;;;15.10;9.63;;;2.10;99.90;;;;;;5074195;28;20675;-76
2020/12/31 01:02:58;;;;;;;19.70;9.93;;;2.10;99.90;;;;;;5081717;28;20037;-77
2020/12/31 01:05:25;;;;;;;16.35;9.77;;;2.10;99.90;;;;;;5055442;28;20496;-77
2020/12/31 01:07:52;;;;;;;17.98;10.93;;;2.10;99.90;;;;;;5053852;28;20041;-76
2020/12/31 01:10:18;;;;;;;16.13;10.00;;;2.10;99.90;;;;;;5054454;28;20052;-77
2020/12/31 01:12:45;;;;;;;17.30;10.30;;;2.10;99.90;;;;;;5065823;28;20041;-77
2020/12/31 01:15:11;;;;;;;16.25;9.98;;;2.20;99.90;;;;;;5081578;28;20020;-77
2020/12/31 01:17:38;;;;;;;16.83;10.43;;;2.20;99.90;;;;;;5082633;28;20024;-77
2020/12/31 01:20:05;;;;;;;12.65;8.20;;;2.30;99.90;;;;;;5077064;28;20028;-78
2020/12/31 01:22:31;;;;;;;18.08;10.27;;;2.30;99.90;;;;;;5071522;28;20036;-78
2020/12/31 01:24:57;;;;;;;13.63;8.77;;;2.30;99.90;;;;;;5080823;28;20032;-79
2020/12/31 01:27:24;;;;;;;15.43;8.68;;;2.40;99.90;;;;;;5070255;28;20040;-76
2020/12/31 01:29:50;;;;;;;13.73;8.35;;;2.50;99.90;;;;;;5083482;28;20472;-76
2020/12/31 01:32:24;;;;;;;63.33;30.55;;;2.40;99.90;;;;;;5064070;28;20703;-79
2020/12/31 01:34:53;;;;;;;61.63;30.45;;;2.40;99.90;;;;;;5053401;28;20029;-76
2020/12/31 01:37:20;;;;;;;78.82;41.05;;;2.50;99.90;;;;;;5053809;28;20453;-76
2020/12/31 01:39:47;;;;;;;207.35;100.93;;;2.50;99.90;;;;;;5053211;28;20033;-75
2020/12/31 01:42:14;;;;;;;110.65;55.83;;;2.50;99.90;;;;;;5052900;28;20418;-76
2020/12/31 01:44:40;;;;;;;67.13;33.83;;;2.50;99.90;;;;;;5052976;28;20390;-77
2020/12/31 01:47:08;;;;;;;56.80;30.77;;;2.40;99.90;;;;;;5046342;28;20470;-77
2020/12/31 01:49:36;;;;;;;29.40;16.63;;;2.40;99.90;;;;;;5059366;28;20381;-76
2020/12/31 01:52:02;;;;;;;29.92;15.75;;;2.40;99.90;;;;;;5052414;28;20044;-77
2020/12/31 01:54:29;;;;;;;31.45;16.42;;;2.40;99.90;;;;;;5042568;28;20040;-77
2020/12/31 01:56:57;;;;;;;26.42;16.10;;;2.40;99.90;;;;;;5052040;28;20040;-78
2020/12/31 01:59:24;;;;;;;71.90;36.30;;;2.30;99.90;;;;;;5051103;28;20044;-77
2020/12/31 02:01:52;;;;;;;267.95;131.57;;;2.30;99.90;;;;;;5056472;28;20029;-77
2020/12/31 02:04:19;;;;;;;59.65;33.13;;;2.30;99.90;;;;;;5052497;28;20037;-77
2020/12/31 02:06:46;;;;;;;81.70;40.30;;;2.30;99.90;;;;;;5052723;28;20029;-77
2020/12/31 02:09:12;;;;;;;83.72;40.35;;;2.30;99.90;;;;;;5033269;28;20037;-77
2020/12/31 02:11:39;;;;;;;182.73;98.32;;;2.20;99.90;;;;;;5052822;28;20029;-77
2020/12/31 02:14:06;;;;;;;103.18;55.70;;;2.20;99.90;;;;;;5051349;28;20036;-78
2020/12/31 02:16:37;;;;;;;24.67;15.48;;;2.30;99.90;;;;;;5054259;28;20051;-78
2020/12/31 02:19:07;;;;;;;40.05;22.10;;;2.30;99.90;;;;;;5038900;28;20486;-77
2020/12/31 02:21:35;;;;;;;23.98;15.30;;;2.40;99.90;;;;;;5052517;28;20051;-78
2020/12/31 02:24:07;;;;;;;24.20;15.93;;;2.30;99.90;;;;;;5035353;28;20037;-78
2020/12/31 02:26:35;;;;;;;51.85;30.13;;;2.40;99.90;;;;;;5060875;28;20025;-77
2020/12/31 02:29:03;;;;;;;92.63;53.38;;;2.40;99.90;;;;;;5052454;28;20040;-77
2020/12/31 02:31:30;;;;;;;27.67;17.50;;;2.30;99.90;;;;;;5051818;28;20064;-78
2020/12/31 02:33:58;;;;;;;45.88;25.15;;;2.30;99.90;;;;;;5034077;28;20076;-78
2020/12/31 02:36:27;;;;;;;19.88;12.27;;;2.30;99.90;;;;;;5032977;28;20044;-78
2020/12/31 02:38:56;;;;;;;23.77;13.73;;;2.30;99.90;;;;;;5049990;28;20036;-77
2020/12/31 02:41:22;;;;;;;24.20;13.10;;;2.30;99.90;;;;;;5053407;28;20041;-77
2020/12/31 02:43:49;;;;;;;23.90;14.43;;;2.30;99.90;;;;;;5035114;28;20041;-77
2020/12/31 02:46:16;;;;;;;93.40;47.58;;;2.20;99.90;;;;;;5055655;28;20464;-77
2020/12/31 02:48:42;;;;;;;43.38;25.15;;;2.20;99.90;;;;;;5063687;28;20387;-76
2020/12/31 02:51:09;;;;;;;27.90;16.55;;;2.20;99.90;;;;;;5051356;28;20362;-76
2020/12/31 02:53:36;;;;;;;48.50;27.13;;;2.20;99.90;;;;;;5034638;28;20362;-76
2020/12/31 02:56:09;;;;;;;76.32;37.40;;;2.20;99.90;;;;;;5065898;28;20037;-76
2020/12/31 02:58:37;;;;;;;71.60;37.97;;;2.20;99.90;;;;;;5034584;28;20041;-76
2020/12/31 03:01:03;;;;;;;289.75;134.10;;;2.20;99.90;;;;;;5051677;28;20037;-77
2020/12/31 03:03:29;;;;;;;61.67;34.58;;;2.20;99.90;;;;;;5051730;28;20056;-78
2020/12/31 03:05:56;;;;;;;41.65;23.65;;;2.10;99.90;;;;;;5052059;28;20371;-76
2020/12/31 03:08:22;;;;;;;85.43;38.22;;;2.10;99.90;;;;;;5017078;28;20041;-78
2020/12/31 03:10:50;;;;;;;98.82;45.35;;;2.10;99.90;;;;;;5034147;28;20049;-78
2020/12/31 03:13:17;;;;;;;53.58;26.95;;;2.10;99.90;;;;;;5033167;28;20047;-76
2020/12/31 03:15:44;;;;;;;33.55;18.85;;;2.10;99.90;;;;;;5059464;28;20103;-76
2020/12/31 03:18:10;;;;;;;50.17;26.15;;;2.10;99.90;;;;;;5033625;28;20037;-76
2020/12/31 03:20:43;;;;;;;62.67;33.10;;;2.00;99.90;;;;;;5042533;28;20041;-76
2020/12/31 03:23:17;;;;;;;34.25;18.90;;;2.00;99.90;;;;;;5033049;28;20041;-76
2020/12/31 03:25:44;;;;;;;91.25;46.35;;;1.90;99.90;;;;;;5036693;28;20036;-77
2020/12/31 03:28:13;;;;;;;114.38;58.85;;;1.90;99.90;;;;;;5053632;28;20037;-76
2020/12/31 03:30:41;;;;;;;31.13;18.48;;;1.80;99.90;;;;;;5055205;28;20393;-76
2020/12/31 03:33:12;;;;;;;28.60;15.70;;;1.80;99.90;;;;;;5055359;28;20053;-76
2020/12/31 03:35:40;;;;;;;68.47;32.27;;;1.80;99.90;;;;;;5066129;28;20031;-76
2020/12/31 03:38:06;;;;;;;150.82;64.05;;;1.70;99.90;;;;;;5057561;28;20025;-76
2020/12/31 03:40:33;;;;;;;38.22;20.15;;;1.70;99.90;;;;;;5056020;28;20037;-76
2020/12/31 03:42:59;;;;;;;45.97;23.08;;;1.60;99.90;;;;;;5054748;28;20033;-77
2020/12/31 03:45:25;;;;;;;39.92;20.38;;;1.60;99.90;;;;;;5034955;28;20045;-76
2020/12/31 03:47:52;;;;;;;65.47;30.52;;;1.60;99.90;;;;;;5066388;28;20028;-76
2020/12/31 03:50:18;;;;;;;33.65;19.10;;;1.50;99.90;;;;;;5046891;28;20052;-76
2020/12/31 03:52:44;;;;;;;36.83;20.15;;;1.50;99.90;;;;;;5055032;28;20365;-76
2020/12/31 03:55:10;;;;;;;29.85;15.95;;;1.40;99.90;;;;;;5054346;28;20028;-77
2020/12/31 03:57:37;;;;;;;38.17;20.63;;;1.50;99.90;;;;;;5055140;28;20040;-77
2020/12/31 04:00:04;;;;;;;47.38;23.52;;;1.50;99.90;;;;;;5035939;28;20049;-77
2020/12/31 04:02:30;;;;;;;23.75;12.90;;;1.40;99.90;;;;;;5075451;28;20052;-77
2020/12/31 04:04:58;;;;;;;23.00;12.82;;;1.40;99.90;;;;;;5054271;28;20032;-77
2020/12/31 04:07:24;;;;;;;33.17;17.13;;;1.40;99.90;;;;;;5036807;28;20474;-77
2020/12/31 04:09:50;;;;;;;27.80;15.13;;;1.40;99.90;;;;;;5036908;28;20029;-77
2020/12/31 04:12:17;;;;;;;33.90;17.05;;;1.40;99.90;;;;;;5051251;28;20192;-77
2020/12/31 04:14:44;;;;;;;129.05;63.47;;;1.40;99.90;;;;;;5037576;28;20029;-77
2020/12/31 04:17:11;;;;;;;24.15;13.40;;;1.40;99.90;;;;;;5036811;28;20020;-76
2020/12/31 04:19:41;;;;;;;18.13;11.52;;;1.40;99.90;;;;;;5054355;28;20041;-77
2020/12/31 04:22:08;;;;;;;60.97;30.42;;;1.30;99.90;;;;;;5036215;28;20044;-77
2020/12/31 04:24:35;;;;;;;18.70;11.18;;;1.30;99.90;;;;;;5054855;28;20458;-77
2020/12/31 04:27:01;;;;;;;38.10;23.35;;;1.20;99.90;;;;;;5036547;28;20048;-77
2020/12/31 04:29:28;;;;;;;16.45;10.73;;;1.20;99.90;;;;;;5036357;28;20041;-77
2020/12/31 04:31:54;;;;;;;81.85;47.42;;;1.10;99.90;;;;;;5050715;28;20045;-77
2020/12/31 04:34:20;;;;;;;33.92;20.92;;;1.10;99.90;;;;;;5074354;28;20032;-77
2020/12/31 04:36:46;;;;;;;18.60;10.25;;;1.10;99.90;;;;;;5071953;28;20037;-77
2020/12/31 04:39:13;;;;;;;24.75;14.10;;;1.20;99.90;;;;;;5073719;28;20029;-77
2020/12/31 04:41:39;;;;;;;18.45;11.63;;;1.20;99.90;;;;;;5076406;28;20047;-77
2020/12/31 04:44:06;;;;;;;69.10;36.00;;;1.20;99.90;;;;;;5073664;28;20036;-77
2020/12/31 04:46:34;;;;;;;74.60;40.22;;;1.20;99.90;;;;;;5073887;28;20039;-77
2020/12/31 04:49:08;;;;;;;72.00;39.83;;;1.20;99.90;;;;;;5101941;28;20038;-77
2020/12/31 04:51:36;;;;;;;46.78;25.90;;;1.10;99.90;;;;;;5055917;28;20401;-77
2020/12/31 04:54:06;;;;;;;35.10;19.77;;;1.10;99.90;;;;;;5055664;28;20053;-77
2020/12/31 04:56:35;;;;;;;86.20;41.22;;;1.10;99.90;;;;;;5072418;28;20041;-76
2020/12/31 04:59:02;;;;;;;64.43;30.55;;;1.10;99.90;;;;;;5072018;28;20043;-77
2020/12/31 05:01:28;;;;;;;37.70;19.30;;;1.10;99.90;;;;;;5074063;28;20497;-77
2020/12/31 05:03:54;;;;;;;29.10;14.68;;;1.10;99.90;;;;;;5072611;28;20041;-77
2020/12/31 05:06:22;;;;;;;62.97;32.85;;;1.10;99.90;;;;;;5085314;28;20035;-77
2020/12/31 05:08:49;;;;;;;31.60;18.02;;;1.10;99.90;;;;;;5080075;28;20020;-77
2020/12/31 05:11:15;;;;;;;23.23;14.13;;;1.10;99.90;;;;;;5076968;28;20039;-77
2020/12/31 05:13:46;;;;;;;55.92;32.75;;;1.10;99.90;;;;;;5075827;28;20050;-76
2020/12/31 05:16:12;;;;;;;14.60;9.02;;;1.10;99.90;;;;;;5086615;28;20020;-76
2020/12/31 05:18:39;;;;;;;15.18;9.23;;;1.20;99.90;;;;;;5071640;28;20032;-76
2020/12/31 05:21:16;;;;;;;14.75;9.40;;;1.20;99.90;;;;;;5071357;28;20393;-76
2020/12/31 05:23:45;;;;;;;14.07;8.88;;;1.20;99.90;;;;;;5073540;28;20071;-76
2020/12/31 05:26:26;;;;;;;18.05;11.10;;;1.20;99.90;;;;;;5075406;28;20028;-76
2020/12/31 05:28:53;;;;;;;14.55;8.40;;;1.30;99.90;;;;;;5067524;28;20040;-76
2020/12/31 05:31:21;;;;;;;11.00;6.50;;;1.30;99.90;;;;;;5075460;28;20045;-76
2020/12/31 05:33:47;;;;;;;24.55;14.63;;;1.30;99.90;;;;;;5080738;28;20488;-76
2020/12/31 05:36:29;;;;;;;10.45;6.85;;;1.30;99.90;;;;;;5082639;28;20043;-77
2020/12/31 05:38:56;;;;;;;18.73;10.07;;;1.30;99.90;;;;;;5072799;28;20028;-77
2020/12/31 05:41:26;;;;;;;22.00;13.10;;;1.30;99.90;;;;;;5081313;28;20047;-77
2020/12/31 05:43:55;;;;;;;34.15;14.88;;;1.30;99.90;;;;;;5083294;28;20404;-77
2020/12/31 05:46:21;;;;;;;24.05;12.32;;;1.20;99.90;;;;;;5083098;28;20036;-77
2020/12/31 05:49:01;;;;;;;22.90;10.18;;;1.20;99.90;;;;;;5085698;28;20056;-77
2020/12/31 05:51:39;;;;;;;19.63;9.45;;;1.20;99.90;;;;;;5072885;28;20040;-77
2020/12/31 05:54:06;;;;;;;15.57;9.00;;;1.20;99.90;;;;;;5073213;28;20037;-76
2020/12/31 05:56:40;;;;;;;67.15;32.05;;;1.20;99.90;;;;;;5073133;28;20037;-76
2020/12/31 05:59:23;;;;;;;23.88;12.57;;;1.20;99.90;;;;;;5071215;28;20044;-77
2020/12/31 06:01:59;;;;;;;41.85;19.77;;;1.20;99.90;;;;;;5082699;28;20115;-77
2020/12/31 06:04:54;;;;;;;8.48;5.57;;;1.20;99.90;;;;;;5072731;28;20486;-77
2020/12/31 06:07:29;;;;;;;54.60;27.52;;;1.20;99.90;;;;;;5079883;28;20027;-77
2020/12/31 06:10:05;;;;;;;11.60;6.80;;;1.20;99.90;;;;;;5072388;28;20028;-77
2020/12/31 06:12:48;;;;;;;11.27;6.40;;;1.20;99.90;;;;;;5072545;28;20036;-76
2020/12/31 06:15:33;;;;;;;38.92;17.20;;;1.20;99.90;;;;;;5070560;28;20040;-76
2020/12/31 06:18:01;;;;;;;9.32;6.35;;;1.30;99.90;;;;;;5072274;28;20032;-76
2020/12/31 06:20:30;;;;;;;10.65;5.00;;;1.20;99.90;;;;;;5073798;28;20040;-76
2020/12/31 06:23:32;;;;;;;11.80;6.50;;;1.20;99.90;;;;;;5071876;28;20373;-76
2020/12/31 06:25:59;;;;;;;;;;;1.30;99.90;;;;;;5079614;28;20438;-76
2020/12/31 06:28:25;;;;;;;11.80;6.07;;;1.40;99.90;;;;;;5081721;28;20325;-76
2020/12/31 06:30:52;;;;;;;7.55;4.18;;;1.40;99.90;;;;;;5074499;28;20051;-76
2020/12/31 06:33:47;;;;;;;8.55;5.07;;;1.50;99.90;;;;;;5031920;28;20056;-77
2020/12/31 06:36:13;;;;;;;6.20;4.03;;;1.50;99.90;;;;;;5049309;28;20045;-76
2020/12/31 06:38:43;;;;;;;7.28;4.38;;;1.50;99.90;;;;;;5051741;28;20041;-75
2020/12/31 06:41:31;;;;;;;7.05;4.28;;;1.40;99.90;;;;;;5048434;28;20390;-76
2020/12/31 06:44:10;;;;;;;7.70;4.47;;;1.50;99.90;;;;;;5035257;28;20128;-76
2020/12/31 06:46:48;;;;;;;8.10;4.72;;;1.40;99.90;;;;;;5069139;28;20512;-75
2020/12/31 06:49:15;;;;;;;8.00;4.60;;;1.50;99.90;;;;;;5038817;28;20033;-76
2020/12/31 06:51:42;;;;;;;8.30;5.03;;;1.40;99.90;;;;;;5049031;28;20056;-76
2020/12/31 06:54:08;;;;;;;7.40;4.60;;;1.50;99.90;;;;;;5032931;28;20060;-76
2020/12/31 06:56:48;;;;;;;6.85;4.40;;;1.50;99.90;;;;;;5034323;28;20029;-76
2020/12/31 06:59:30;;;;;;;10.98;5.28;;;1.50;99.90;;;;;;5053782;28;20076;-76
2020/12/31 07:02:20;;;;;;;9.80;5.30;;;1.50;99.90;;;;;;5072579;28;20056;-76
2020/12/31 07:04:46;;;;;;;7.88;5.05;;;1.50;99.90;;;;;;5056427;28;20036;-76
2020/12/31 07:07:18;;;;;;;7.47;5.55;;;1.50;99.90;;;;;;5037877;28;20080;-76
2020/12/31 07:09:52;;;;;;;8.32;4.68;;;1.50;99.90;;;;;;5061291;28;20032;-76
2020/12/31 07:12:31;;;;;;;8.23;5.05;;;1.50;99.90;;;;;;5050137;28;20513;-76
2020/12/31 07:14:57;;;;;;;9.25;5.60;;;1.50;99.90;;;;;;5045240;28;20512;-76
2020/12/31 07:17:24;;;;;;;9.80;5.13;;;1.50;99.90;;;;;;5055181;28;20028;-77
2020/12/31 07:19:59;;;;;;;9.13;5.70;;;1.60;99.90;;;;;;5037355;28;20041;-77
2020/12/31 07:22:26;;;;;;;8.13;5.32;;;1.60;99.90;;;;;;5054827;28;20048;-76
2020/12/31 07:25:01;;;;;;;10.25;5.85;;;1.60;99.90;;;;;;5037319;28;20052;-77
2020/12/31 07:27:41;;;;;;;7.88;4.80;;;1.70;99.90;;;;;;5054897;28;20033;-77
2020/12/31 07:30:07;;;;;;;8.52;4.88;;;1.70;99.90;;;;;;5054817;28;20028;-76
2020/12/31 07:32:53;;;;;;;8.13;5.00;;;1.70;99.90;;;;;;5057769;28;20049;-77
2020/12/31 07:35:37;;;;;;;9.15;5.32;;;1.70;99.90;;;;;;5053215;28;20041;-77
2020/12/31 07:38:06;;;;;;;7.38;4.50;;;1.80;99.90;;;;;;5037103;28;20028;-77
2020/12/31 07:40:36;;;;;;;7.95;5.15;;;1.80;99.90;;;;;;5054869;28;20048;-77
2020/12/31 07:43:04;;;;;;;7.70;4.10;;;1.80;99.90;;;;;;5047991;28;20040;-77
2020/12/31 07:45:31;;;;;;;9.93;5.78;;;1.90;99.90;;;;;;5055134;28;20458;-76
2020/12/31 07:47:59;;;;;;;8.77;4.75;;;1.90;99.90;;;;;;5055233;28;20033;-76
2020/12/31 07:50:26;;;;;;;6.93;4.40;;;1.90;99.90;;;;;;5054431;28;20029;-76
2020/12/31 07:52:52;;;;;;;33.40;19.45;;;1.90;99.90;;;;;;5054964;28;20029;-76
2020/12/31 07:55:19;;;;;;;18.85;9.10;;;2.00;99.90;;;;;;5036860;28;20044;-76
2020/12/31 07:57:46;;;;;;;11.55;7.10;;;2.00;99.90;;;;;;5055061;28;20386;-75
2020/12/31 08:00:14;;;;;;;55.53;27.23;;;2.10;99.90;;;;;;5054267;28;20024;-75
2020/12/31 08:02:52;;;;;;;15.63;8.38;;;2.10;99.90;;;;;;5054517;28;20041;-75
2020/12/31 08:05:20;;;;;;;30.70;16.27;;;2.10;99.90;;;;;;5036236;28;20040;-75
2020/12/31 08:07:55;;;;;;;22.38;12.18;;;2.10;99.90;;;;;;5036977;28;20045;-75
2020/12/31 08:10:23;;;;;;;13.75;8.45;;;2.20;99.90;;;;;;5052115;28;20045;-75
2020/12/31 08:13:07;;;;;;;14.07;7.43;;;2.20;99.90;;;;;;5038919;28;20032;-75
2020/12/31 08:15:33;;;;;;;8.77;5.55;;;2.20;99.90;;;;;;5054623;28;20104;-75
2020/12/31 08:18:03;;;;;;;10.70;6.53;;;2.30;99.90;;;;;;5052194;28;20044;-75
2020/12/31 08:20:37;;;;;;;17.00;10.82;;;2.30;99.90;;;;;;5054315;28;20037;-75
2020/12/31 08:23:05;;;;;;;10.40;5.47;;;2.30;99.90;;;;;;5054381;28;20036;-76
2020/12/31 08:25:40;;;;;;;11.68;6.45;;;2.30;99.90;;;;;;5054492;28;20036;-77
2020/12/31 08:28:07;;;;;;;12.77;6.68;;;2.30;99.90;;;;;;5044158;28;20041;-77
2020/12/31 08:30:35;;;;;;;10.07;6.68;;;2.40;99.90;;;;;;5036475;28;20044;-77
2020/12/31 08:33:02;;;;;;;16.52;8.45;;;2.40;99.90;;;;;;5056098;28;20397;-77
2020/12/31 08:35:50;;;;;;;9.05;5.78;;;2.50;99.90;;;;;;5058919;28;20378;-77
2020/12/31 08:38:21;;;;;;;9.25;5.95;;;2.50;99.90;;;;;;5041928;28;20045;-76
2020/12/31 08:40:56;;;;;;;38.47;17.20;;;2.50;99.90;;;;;;5069446;28;20192;-84
2020/12/31 08:43:26;;;;;;;14.60;8.80;;;2.60;99.90;;;;;;5050860;28;20033;-79
2020/12/31 08:45:57;;;;;;;9.95;5.53;;;2.60;99.90;;;;;;5062717;28;20358;-79
2020/12/31 08:48:27;;;;;;;19.55;11.48;;;2.60;99.90;;;;;;5035738;28;20632;-80
2020/12/31 08:51:08;;;;;;;8.93;4.97;;;2.60;99.90;;;;;;5054852;28;20033;-79
2020/12/31 08:54:00;;;;;;;9.60;6.65;;;2.70;99.90;;;;;;5039281;28;20033;-80
2020/12/31 08:56:27;;;;;;;38.20;23.85;;;2.70;99.90;;;;;;5057943;28;20047;-80
2020/12/31 08:59:09;;;;;;;73.60;41.42;;;2.70;99.90;;;;;;5054389;28;20355;-81
2020/12/31 09:01:37;;;;;;;22.50;13.68;;;2.70;99.90;;;;;;5046791;28;20040;-81
2020/12/31 09:04:10;;;;;;;10.02;5.97;;;2.80;99.90;;;;;;5061019;28;20040;-79
2020/12/31 09:06:42;;;;;;;8.68;5.68;;;2.70;99.90;;;;;;5054157;28;20216;-81
2020/12/31 09:09:34;;;;;;;28.88;16.77;;;2.80;99.90;;;;;;5035805;28;20025;-80
2020/12/31 09:12:06;;;;;;;27.52;15.48;;;2.70;99.90;;;;;;5051716;28;20045;-80
2020/12/31 09:14:37;;;;;;;18.00;10.70;;;2.60;99.90;;;;;;5063588;28;20462;-79
2020/12/31 09:17:22;;;;;;;9.10;5.65;;;2.60;99.90;;;;;;5055039;28;20524;-79
2020/12/31 09:19:55;;;;;;;26.10;15.10;;;2.60;99.90;;;;;;5051465;28;20524;-80
2020/12/31 09:22:22;;;;;;;15.80;8.68;;;2.50;99.90;;;;;;5053238;28;20033;-79
2020/12/31 09:24:48;;;;;;;8.13;5.00;;;2.50;99.90;;;;;;5035619;28;20045;-81
2020/12/31 09:27:25;;;;;;;8.60;5.43;;;2.50;99.90;;;;;;5053375;28;20036;-79
2020/12/31 09:29:58;;;;;;;8.07;5.18;;;2.40;99.90;;;;;;5055006;28;20025;-79
2020/12/31 09:32:25;;;;;;;6.72;4.18;;;2.40;99.90;;;;;;5052214;28;20132;-79
2020/12/31 09:34:51;;;;;;;9.35;5.47;;;2.40;99.90;;;;;;5036125;28;20040;-79
2020/12/31 09:37:18;;;;;;;11.93;4.88;;;2.30;99.90;;;;;;5053254;28;20378;-79
2020/12/31 09:39:45;;;;;;;12.77;9.02;;;2.30;99.90;;;;;;5061481;28;20036;-81
2020/12/31 09:42:11;;;;;;;7.82;5.30;;;2.20;99.90;;;;;;5050928;28;20041;-79
2020/12/31 09:44:39;;;;;;;8.30;4.70;;;2.20;99.90;;;;;;5043010;28;20463;-79
2020/12/31 09:47:06;;;;;;;9.65;5.57;;;2.30;99.90;;;;;;5059304;28;20032;-77
2020/12/31 09:49:33;;;;;;;6.57;4.38;;;2.20;99.90;;;;;;5037575;28;20037;-80
2020/12/31 09:52:00;;;;;;;6.95;4.45;;;2.10;99.90;;;;;;5041599;28;20051;-80
2020/12/31 09:54:27;;;;;;;12.13;6.10;;;2.00;99.90;;;;;;5033883;28;20120;-80
2020/12/31 09:56:53;;;;;;;8.10;5.38;;;2.00;99.90;;;;;;5056371;28;20044;-79
2020/12/31 09:59:19;;;;;;;13.82;7.68;;;1.90;99.90;;;;;;5053293;28;20029;-79
2020/12/31 10:01:47;;;;;;;8.90;5.22;;;1.90;99.90;;;;;;5046059;28;20045;-78
2020/12/31 10:04:13;;;;;;;9.02;6.20;;;1.70;99.90;;;;;;5052209;28;20036;-80
2020/12/31 10:06:46;;;;;;;7.85;5.00;;;1.70;99.90;;;;;;5036457;28;20041;-79
2020/12/31 10:09:15;;;;;;;12.10;6.57;;;1.60;99.90;;;;;;5052561;28;20036;-79
2020/12/31 10:11:53;;;;;;;19.52;11.55;;;1.70;99.90;;;;;;5018659;28;20052;-77
2020/12/31 10:14:20;;;;;;;14.20;8.95;;;1.70;99.90;;;;;;5054588;28;20036;-83
2020/12/31 10:16:46;;;;;;;58.90;32.22;;;1.70;99.90;;;;;;5059613;28;20040;-78
2020/12/31 10:19:13;;;;;;;15.65;8.68;;;1.70;99.90;;;;;;5060465;28;20040;-77
2020/12/31 10:21:40;;;;;;;9.77;6.07;;;1.80;99.90;;;;;;5052973;28;20041;-79
2020/12/31 10:24:06;;;;;;;11.18;7.22;;;1.70;99.90;;;;;;5052262;28;20033;-78
2020/12/31 10:26:32;;;;;;;9.32;5.53;;;1.70;99.90;;;;;;5062945;28;20029;-78
2020/12/31 10:28:59;;;;;;;9.07;5.28;;;1.80;99.90;;;;;;5035150;28;20489;-78
2020/12/31 10:31:25;;;;;;;8.07;4.97;;;1.70;99.90;;;;;;5039695;28;20407;-78
2020/12/31 10:33:52;;;;;;;10.23;6.28;;;1.70;99.90;;;;;;5072504;28;20453;-78
2020/12/31 10:36:18;;;;;;;8.57;5.88;;;1.70;99.90;;;;;;5071956;28;20039;-79
2020/12/31 10:38:45;;;;;;;9.30;6.35;;;1.70;99.90;;;;;;5074980;28;20036;-79
2020/12/31 10:41:14;;;;;;;12.27;7.10;;;1.70;99.90;;;;;;5081656;28;20036;-79
2020/12/31 10:43:41;;;;;;;9.95;5.78;;;1.80;99.90;;;;;;5071213;28;20032;-79
2020/12/31 10:46:07;;;;;;;8.82;5.90;;;1.80;99.90;;;;;;5086615;28;20029;-78
2020/12/31 10:48:33;;;;;;;12.00;7.10;;;1.90;99.90;;;;;;5074424;28;20047;-78
2020/12/31 10:51:00;;;;;;;9.05;5.65;;;2.00;99.90;;;;;;5089696;28;20028;-78
2020/12/31 10:53:26;;;;;;;10.20;5.53;;;2.00;99.90;;;;;;5070112;28;20603;-78
2020/12/31 10:55:52;;;;;;;10.50;5.85;;;1.90;99.90;;;;;;5072388;28;20381;-82
2020/12/31 10:58:19;;;;;;;9.55;5.07;;;1.90;99.90;;;;;;5070552;28;20053;-77
2020/12/31 11:00:45;;;;;;;12.25;6.47;;;1.90;99.90;;;;;;5068319;28;20037;-77
2020/12/31 11:03:12;;;;;;;9.50;5.82;;;1.80;99.90;;;;;;5071166;28;20041;-76
2020/12/31 11:05:38;;;;;;;8.50;5.25;;;1.80;99.90;;;;;;5071873;28;20480;-76
2020/12/31 11:08:04;;;;;;;12.02;6.85;;;1.80;99.90;;;;;;5071706;28;20032;-77
2020/12/31 11:10:30;;;;;;;9.68;5.95;;;1.80;99.90;;;;;;5085926;28;20040;-76
2020/12/31 11:12:58;;;;;;;11.43;6.57;;;1.80;99.90;;;;;;5071879;28;20037;-76
2020/12/31 11:15:24;;;;;;;11.63;5.65;;;1.80;99.90;;;;;;5070781;28;20039;-76
2020/12/31 11:17:51;;;;;;;14.07;6.72;;;1.80;99.90;;;;;;5077858;28;20036;-76
2020/12/31 11:20:17;;;;;;;13.02;7.07;;;1.80;99.90;;;;;;5072444;28;20385;-76
2020/12/31 11:22:43;;;;;;;14.80;7.70;;;1.80;99.90;;;;;;5059125;28;20508;-77
2020/12/31 11:25:09;;;;;;;12.43;7.75;;;1.80;99.90;;;;;;5085300;28;20838;-78
2020/12/31 11:27:36;;;;;;;11.88;6.60;;;1.80;99.90;;;;;;5071683;28;20025;-78
2020/12/31 11:30:03;;;;;;;13.98;8.05;;;1.80;99.90;;;;;;5069926;28;20045;-78
2020/12/31 11:32:29;;;;;;;13.57;7.78;;;1.80;99.90;;;;;;5073996;28;20048;-77
2020/12/31 11:34:55;;;;;;;16.00;7.80;;;1.80;99.90;;;;;;5055722;28;20039;-78
2020/12/31 11:37:21;;;;;;;13.05;7.63;;;1.80;99.90;;;;;;5061502;28;20032;-77
2020/12/31 11:39:48;;;;;;;15.43;10.57;;;1.80;99.90;;;;;;5051582;28;20036;-77
2020/12/31 11:42:14;;;;;;;69.05;33.15;;;1.80;99.90;;;;;;5050699;28;20041;-77
2020/12/31 11:44:41;;;;;;;19.70;12.73;;;2.00;99.90;;;;;;5035729;28;20386;-78
2020/12/31 11:47:08;;;;;;;18.52;10.35;;;2.00;99.90;;;;;;5055299;28;20033;-79
2020/12/31 11:49:34;;;;;;;17.95;10.50;;;2.10;99.90;;;;;;5037535;28;20041;-77
2020/12/31 11:52:00;;;;;;;12.27;8.00;;;2.20;99.90;;;;;;5055075;28;20051;-77
2020/12/31 11:54:26;;;;;;;23.92;12.55;;;2.20;99.90;;;;;;5055054;28;20040;-78
2020/12/31 11:56:53;;;;;;;35.55;18.38;;;2.30;99.90;;;;;;5037014;28;20033;-78
2020/12/31 11:59:19;;;;;;;13.55;10.10;;;2.30;99.90;;;;;;5020222;28;20882;-79
2020/12/31 12:01:50;;;;;;;25.30;13.93;;;2.40;99.90;;;;;;5037040;28;20494;-78
2020/12/31 12:04:20;;;;;;;35.35;19.30;;;2.50;99.90;;;;;;5036998;28;20370;-78
2020/12/31 12:06:51;;;;;;;10.95;7.40;;;2.60;99.90;;;;;;5041238;28;20024;-80
2020/12/31 12:09:18;;;;;;;12.02;8.05;;;2.70;99.90;;;;;;5040208;28;20033;-77
2020/12/31 12:11:45;;;;;;;13.27;6.57;;;2.80;99.90;;;;;;5049624;28;20044;-78
2020/12/31 12:14:11;;;;;;;10.82;7.25;;;2.70;99.90;;;;;;5056528;28;20028;-79
2020/12/31 12:16:40;;;;;;;21.10;13.43;;;2.70;99.90;;;;;;5039672;28;20028;-80
2020/12/31 12:19:09;;;;;;;28.02;16.35;;;2.60;99.90;;;;;;5054547;28;20036;-78
2020/12/31 12:21:37;;;;;;;18.10;13.02;;;2.50;99.90;;;;;;5034751;28;20052;-77
2020/12/31 12:24:04;;;;;;;12.77;9.10;;;2.50;99.90;;;;;;5054283;28;20052;-77
2020/12/31 12:26:38;;;;;;;41.55;21.35;;;2.50;99.90;;;;;;5047928;28;20033;-78
2020/12/31 12:29:08;;;;;;;26.00;14.23;;;2.50;99.90;;;;;;5034545;28;20043;-78
2020/12/31 12:31:36;;;;;;;18.58;10.55;;;2.50;99.90;;;;;;5055138;28;20492;-79
2020/12/31 12:34:03;;;;;;;18.48;10.90;;;2.50;99.90;;;;;;5052013;28;20036;-79
2020/12/31 12:36:30;;;;;;;12.65;8.57;;;2.50;99.90;;;;;;5058286;28;20037;-78
2020/12/31 12:38:56;;;;;;;17.02;10.75;;;2.50;99.90;;;;;;5055713;28;20041;-79
2020/12/31 12:41:24;;;;;;;11.95;7.78;;;2.50;99.90;;;;;;5050171;28;20378;-79
2020/12/31 12:43:50;;;;;;;15.07;9.82;;;2.40;99.90;;;;;;5054262;28;20032;-78
2020/12/31 12:46:18;;;;;;;11.98;8.02;;;2.50;99.90;;;;;;5053709;28;20033;-78
2020/12/31 12:48:45;;;;;;;13.25;8.15;;;2.40;99.90;;;;;;5054456;28;20025;-79
2020/12/31 12:51:11;;;;;;;12.95;7.97;;;2.40;99.90;;;;;;5035945;28;20035;-78
2020/12/31 12:53:38;;;;;;;13.20;9.20;;;2.40;99.90;;;;;;5053791;28;20120;-79